Terminal Aerodrome Forecast
Issued by NWS Mt. Holly, NJ

Home | Current Version | Previous Version | Text Only | Print | Product List | Glossary On
Versions: 1 2 3 4 5 6 7 8 9 10 11 12 13
000
FTUS41 KPHI 072340
TAFACY
TAF
KACY 072340Z 0800/0824 05007KT P6SM BKN150
     FM080400 03012G20KT P6SM OVC100
     FM080800 01012G20KT 5SM -RASN OVC020
     FM081000 01012G25KT 2SM -SN OVC010
     FM081600 03015G25KT 4SM -RASN OVC015=

USA.gov is the U.S. government's official web portal to all federal, state and local government web resources and services.